Time;durP1;ratioP1;P1;durP2;ratioP2;P2;SDS_P1;SDS_P2;PMS_P1;PMS_P2;Temp;Humidity;BMP_temperature;BMP_pressure;BME280_temperature;BME280_humidity;BME280_pressure;Samples;Min_cycle;Max_cycle;Signal;HPM_P1;HPM_P2
2023/09/17 00:00:51;;;;;;;0.00;0.00;;;;;;;18.32;100.00;96375.50;5005226;28;20569;-80
2023/09/17 00:03:37;;;;;;;0.00;0.00;;;;;;;18.25;100.00;96371.56;4993677;28;20046;-80
2023/09/17 00:06:24;;;;;;;0.00;0.00;;;;;;;18.14;100.00;96368.25;5004747;28;20515;-80
2023/09/17 00:09:10;;;;;;;0.05;0.05;;;;;;;18.04;100.00;96374.63;5005586;28;20037;-80
2023/09/17 00:11:56;;;;;;;0.10;0.10;;;;;;;17.95;100.00;96375.63;5006476;28;20574;-81
2023/09/17 00:14:42;;;;;;;0.00;0.00;;;;;;;17.83;100.00;96378.81;5004826;28;20080;-80
2023/09/17 00:17:27;;;;;;;0.00;0.00;;;;;;;17.72;100.00;96367.34;4993932;28;20561;-81
2023/09/17 00:20:15;;;;;;;0.00;0.00;;;;;;;17.69;100.00;96367.91;5005723;28;20045;-81
2023/09/17 00:23:01;;;;;;;0.00;0.00;;;;;;;17.64;100.00;96369.88;5003460;28;20282;-81
2023/09/17 00:25:47;;;;;;;0.10;0.10;;;;;;;17.60;100.00;96358.88;5003859;28;20357;-81
2023/09/17 00:28:32;;;;;;;0.00;0.00;;;;;;;17.56;100.00;96368.66;5006249;28;20509;-81
2023/09/17 00:31:18;;;;;;;0.08;0.08;;;;;;;17.55;100.00;96358.94;5005193;28;20198;-80
2023/09/17 00:34:05;;;;;;;0.00;0.00;;;;;;;17.61;100.00;96359.66;5003514;28;20420;-80
2023/09/17 00:36:51;;;;;;;0.10;0.10;;;;;;;17.63;100.00;96362.88;5004476;28;20136;-79
2023/09/17 00:39:37;;;;;;;0.10;0.10;;;;;;;17.63;100.00;96360.97;4976649;28;20054;-79
2023/09/17 00:42:23;;;;;;;0.10;0.10;;;;;;;17.62;100.00;96355.84;4996381;28;20041;-80
2023/09/17 00:45:11;;;;;;;0.10;0.10;;;;;;;17.59;100.00;96356.44;5005190;28;20100;-80
2023/09/17 00:47:57;;;;;;;0.00;0.00;;;;;;;17.70;100.00;96347.91;4989248;28;20485;-80
2023/09/17 00:50:44;;;;;;;0.00;0.00;;;;;;;17.71;100.00;96360.31;4995539;28;20058;-79
2023/09/17 00:53:30;;;;;;;0.00;0.00;;;;;;;17.79;100.00;96351.53;4991787;28;20120;-80
2023/09/17 00:56:16;;;;;;;0.00;0.00;;;;;;;17.91;100.00;96358.38;4988417;28;20073;-80
2023/09/17 00:59:05;;;;;;;0.00;0.00;;;;;;;17.98;100.00;96356.91;5003792;28;20231;-80
2023/09/17 01:01:51;;;;;;;0.00;0.00;;;;;;;18.02;100.00;96357.09;4989197;28;20633;-79
2023/09/17 01:04:40;;;;;;;0.03;0.03;;;;;;;18.08;100.00;96347.78;5002005;28;20045;-80
2023/09/17 01:07:27;;;;;;;0.00;0.00;;;;;;;18.12;100.00;96353.38;5003196;28;20074;-80
2023/09/17 01:10:14;;;;;;;0.10;0.10;;;;;;;18.04;100.00;96350.25;4991876;28;20053;-80
2023/09/17 01:13:02;;;;;;;0.00;0.00;;;;;;;18.05;100.00;96359.19;4990624;28;20603;-80
2023/09/17 01:15:51;;;;;;;0.00;0.00;;;;;;;18.04;100.00;96352.16;5000852;28;20520;-81
2023/09/17 01:18:36;;;;;;;0.08;0.08;;;;;;;18.04;100.00;96347.56;4989244;28;20061;-81
2023/09/17 01:22:02;;;;;;;0.00;0.00;;;;;;;18.03;100.00;96342.44;5002690;28;20947;-79
2023/09/17 01:24:50;;;;;;;0.00;0.00;;;;;;;18.01;100.00;96339.25;5001714;28;20126;-80
2023/09/17 01:27:41;;;;;;;0.03;0.03;;;;;;;18.00;100.00;96340.34;4990530;28;20859;-80
2023/09/17 01:30:27;;;;;;;0.03;0.03;;;;;;;18.09;100.00;96333.13;5003173;28;20060;-80
2023/09/17 01:33:13;;;;;;;0.00;0.00;;;;;;;18.13;100.00;96333.31;4989400;28;20065;-80
2023/09/17 01:35:58;;;;;;;0.00;0.00;;;;;;;17.99;100.00;96336.84;5001797;28;20045;-82
2023/09/17 01:38:48;;;;;;;0.03;0.03;;;;;;;17.97;100.00;96339.03;5004658;28;20057;-81
2023/09/17 01:41:35;;;;;;;0.10;0.10;;;;;;;17.89;100.00;96334.28;5002414;28;20045;-80
2023/09/17 01:44:24;;;;;;;0.00;0.00;;;;;;;17.87;100.00;96339.22;4984322;28;20041;-81
2023/09/17 01:47:10;;;;;;;0.00;0.00;;;;;;;17.78;100.00;96328.28;5000531;28;20140;-80
2023/09/17 01:49:57;;;;;;;0.00;0.00;;;;;;;17.77;100.00;96342.91;4989645;28;20037;-80
2023/09/17 01:52:44;;;;;;;0.00;0.00;;;;;;;17.79;100.00;96337.19;4988975;28;20046;-79
2023/09/17 01:55:30;;;;;;;0.05;0.05;;;;;;;17.69;100.00;96345.47;4990150;28;20037;-81
2023/09/17 01:58:17;;;;;;;0.00;0.00;;;;;;;17.65;100.00;96339.81;4992108;28;20638;-80
2023/09/17 02:01:03;;;;;;;0.00;0.00;;;;;;;17.73;100.00;96343.78;5000667;28;20654;-80
2023/09/17 02:03:49;;;;;;;0.00;0.00;;;;;;;17.69;100.00;96340.84;4994311;28;20057;-80
2023/09/17 02:06:36;;;;;;;0.00;0.00;;;;;;;17.70;100.00;96338.94;4995885;28;20599;-80
2023/09/17 02:09:22;;;;;;;0.00;0.00;;;;;;;17.77;100.00;96337.50;5002713;28;20041;-80
2023/09/17 02:12:08;;;;;;;0.00;0.00;;;;;;;17.75;100.00;96328.88;4984537;28;20057;-79
2023/09/17 02:14:54;;;;;;;0.05;0.05;;;;;;;17.73;100.00;96341.06;5003301;28;20042;-80
2023/09/17 02:17:42;;;;;;;0.08;0.08;;;;;;;17.70;100.00;96336.25;4995395;28;20038;-80
2023/09/17 02:20:27;;;;;;;0.00;0.00;;;;;;;17.64;100.00;96337.41;4986786;28;20037;-81
2023/09/17 02:23:13;;;;;;;0.00;0.00;;;;;;;17.54;100.00;96325.66;5003313;28;20772;-79
2023/09/17 02:25:59;;;;;;;0.10;0.10;;;;;;;17.52;100.00;96332.50;4993920;28;20628;-80
2023/09/17 02:28:45;;;;;;;0.00;0.00;;;;;;;17.51;100.00;96330.88;5005562;28;20037;-80
2023/09/17 02:31:31;;;;;;;0.00;0.00;;;;;;;17.48;100.00;96337.66;5002199;28;20038;-80
2023/09/17 02:34:17;;;;;;;0.10;0.10;;;;;;;17.43;100.00;96337.78;4988717;28;20048;-81
2023/09/17 02:37:03;;;;;;;0.00;0.00;;;;;;;17.40;100.00;96337.53;5004518;28;20148;-81
2023/09/17 02:39:48;;;;;;;0.00;0.00;;;;;;;17.37;100.00;96336.22;4987307;28;20049;-79
2023/09/17 02:42:38;;;;;;;0.10;0.10;;;;;;;17.31;100.00;96334.69;4990974;28;20429;-79
2023/09/17 02:45:24;;;;;;;0.10;0.10;;;;;;;17.34;100.00;96334.09;5000750;28;20778;-79
2023/09/17 02:48:11;;;;;;;0.00;0.00;;;;;;;17.36;100.00;96336.53;5004619;28;20065;-80
2023/09/17 02:50:58;;;;;;;0.00;0.00;;;;;;;17.47;100.00;96327.94;4996814;28;20046;-80
2023/09/17 02:53:46;;;;;;;0.03;0.03;;;;;;;17.64;100.00;96338.22;4995953;28;20122;-80
2023/09/17 02:56:32;;;;;;;0.03;0.03;;;;;;;17.71;100.00;96346.00;5003769;28;20137;-81
2023/09/17 02:59:19;;;;;;;0.10;0.10;;;;;;;17.83;100.00;96335.50;5002695;28;20559;-80
2023/09/17 03:02:05;;;;;;;0.08;0.08;;;;;;;17.94;100.00;96341.53;4979095;28;20164;-81
2023/09/17 03:04:52;;;;;;;0.00;0.00;;;;;;;17.87;100.00;96344.63;5006849;28;20235;-80
2023/09/17 03:07:39;;;;;;;0.10;0.10;;;;;;;17.68;100.00;96341.94;4992848;28;20033;-80
2023/09/17 03:10:26;;;;;;;0.10;0.10;;;;;;;17.71;100.00;96333.25;5004120;28;20048;-81
2023/09/17 03:13:14;;;;;;;0.00;0.00;;;;;;;17.68;100.00;96338.44;4955088;28;1126819;-80
2023/09/17 03:16:02;;;;;;;0.00;0.00;;;;;;;17.69;100.00;96350.88;4992023;28;20315;-80
2023/09/17 03:18:47;;;;;;;0.10;0.10;;;;;;;17.66;100.00;96348.75;4993970;28;20108;-79
2023/09/17 03:21:40;;;;;;;0.10;0.10;;;;;;;17.70;100.00;96341.66;4989569;28;20045;-80
2023/09/17 03:24:26;;;;;;;0.10;0.10;;;;;;;17.72;100.00;96334.88;4994708;28;20756;-79
2023/09/17 03:27:12;;;;;;;0.10;0.10;;;;;;;17.71;100.00;96329.75;4991375;28;20033;-81
2023/09/17 03:29:58;;;;;;;0.10;0.10;;;;;;;17.62;100.00;96326.09;4990720;28;20041;-80
2023/09/17 03:32:44;;;;;;;0.00;0.00;;;;;;;17.61;100.00;96333.41;4992455;28;20037;-81
2023/09/17 03:35:34;;;;;;;0.00;0.00;;;;;;;17.64;100.00;96342.81;4995229;28;20069;-80
2023/09/17 03:38:21;;;;;;;0.00;0.00;;;;;;;17.61;100.00;96338.03;4996086;28;20495;-81
2023/09/17 03:41:06;;;;;;;0.00;0.00;;;;;;;17.51;100.00;96350.63;5003572;28;20132;-81
2023/09/17 03:43:52;;;;;;;0.10;0.10;;;;;;;17.45;100.00;96342.88;4994202;28;20049;-80
2023/09/17 03:46:39;;;;;;;0.10;0.10;;;;;;;17.33;100.00;96324.38;4995032;28;20137;-80
2023/09/17 03:49:26;;;;;;;0.00;0.00;;;;;;;17.36;100.00;96325.72;4992743;28;20563;-80
2023/09/17 03:52:12;;;;;;;0.10;0.10;;;;;;;17.39;100.00;96336.72;4987815;28;20034;-80
2023/09/17 03:54:58;;;;;;;0.00;0.00;;;;;;;17.33;100.00;96329.78;4991996;28;20447;-80
2023/09/17 03:57:44;;;;;;;0.00;0.00;;;;;;;17.30;100.00;96324.19;4990965;28;20484;-79
2023/09/17 04:00:31;;;;;;;0.10;0.10;;;;;;;17.21;100.00;96329.47;4990747;28;20049;-80
2023/09/17 04:03:19;;;;;;;0.00;0.00;;;;;;;17.20;100.00;96317.84;4996753;28;20096;-81
2023/09/17 04:06:07;;;;;;;0.00;0.00;;;;;;;17.13;100.00;96316.59;4989071;28;20048;-79
2023/09/17 04:08:53;;;;;;;0.00;0.00;;;;;;;17.07;100.00;96317.78;4989357;28;20041;-80
2023/09/17 04:11:39;;;;;;;0.08;0.08;;;;;;;17.09;100.00;96312.88;5001454;28;20084;-80
2023/09/17 04:14:25;;;;;;;0.00;0.00;;;;;;;17.13;100.00;96306.59;5002463;28;20417;-81
2023/09/17 04:17:11;;;;;;;0.10;0.10;;;;;;;17.17;100.00;96309.50;4993772;28;20041;-80
2023/09/17 04:19:56;;;;;;;0.10;0.10;;;;;;;17.19;100.00;96307.28;4977158;28;20049;-81
2023/09/17 04:22:43;;;;;;;0.10;0.10;;;;;;;17.16;100.00;96310.59;4989409;28;20536;-81
2023/09/17 04:25:29;;;;;;;0.10;0.10;;;;;;;17.13;100.00;96309.28;4996221;28;20049;-81
2023/09/17 04:28:15;;;;;;;0.10;0.10;;;;;;;17.03;100.00;96316.72;5003901;28;20052;-79
2023/09/17 04:31:01;;;;;;;0.00;0.00;;;;;;;16.93;100.00;96313.09;4987867;28;20099;-81
2023/09/17 04:33:48;;;;;;;0.00;0.00;;;;;;;16.93;100.00;96313.09;5004457;28;20495;-81
2023/09/17 04:36:34;;;;;;;0.00;0.00;;;;;;;16.90;100.00;96319.09;4985502;28;20041;-79
2023/09/17 04:39:20;;;;;;;0.10;0.10;;;;;;;16.85;100.00;96311.03;4995568;28;20045;-79
2023/09/17 04:42:06;;;;;;;0.10;0.10;;;;;;;16.84;100.00;96316.75;4991593;28;20052;-79
2023/09/17 04:44:52;;;;;;;0.00;0.00;;;;;;;16.86;100.00;96319.94;4995719;28;20051;-79
2023/09/17 04:47:39;;;;;;;0.00;0.00;;;;;;;16.97;100.00;96314.13;4990785;28;20463;-80
2023/09/17 04:50:24;;;;;;;0.00;0.00;;;;;;;17.02;100.00;96302.41;5002336;28;20593;-80
2023/09/17 04:53:11;;;;;;;0.00;0.00;;;;;;;17.07;100.00;96306.97;4988788;28;20057;-81
2023/09/17 04:55:57;;;;;;;0.00;0.00;;;;;;;17.02;100.00;96296.22;4994391;28;20777;-79
2023/09/17 04:58:50;;;;;;;0.00;0.00;;;;;;;16.97;100.00;96319.53;4991789;28;20153;-79
2023/09/17 05:01:36;;;;;;;0.00;0.00;;;;;;;16.95;100.00;96318.19;4990260;28;20042;-80
2023/09/17 05:04:24;;;;;;;0.00;0.00;;;;;;;16.92;100.00;96316.88;4996294;28;20587;-79
2023/09/17 05:07:10;;;;;;;0.10;0.10;;;;;;;16.92;100.00;96316.88;4986537;28;20236;-79
2023/09/17 05:09:56;;;;;;;0.10;0.10;;;;;;;16.93;100.00;96318.50;4983947;28;21033;-79
2023/09/17 05:12:43;;;;;;;0.00;0.00;;;;;;;16.86;100.00;96323.44;4990729;28;20360;-80
2023/09/17 05:15:30;;;;;;;0.08;0.08;;;;;;;16.81;100.00;96320.84;4992816;28;20053;-80
2023/09/17 05:18:17;;;;;;;0.10;0.10;;;;;;;16.70;100.00;96327.47;4989987;28;20657;-80
2023/09/17 05:21:06;;;;;;;0.08;0.08;;;;;;;16.67;100.00;96334.22;4996015;28;20049;-79
2023/09/17 05:23:52;;;;;;;0.10;0.10;;;;;;;16.60;100.00;96330.28;5004180;28;20056;-79
2023/09/17 05:26:38;;;;;;;0.10;0.10;;;;;;;16.61;100.00;96334.56;4992968;28;20143;-79
2023/09/17 05:29:24;;;;;;;0.10;0.10;;;;;;;16.60;100.00;96341.06;4991276;28;20041;-78
2023/09/17 05:32:10;;;;;;;0.00;0.00;;;;;;;16.65;100.00;96341.00;4978767;28;20069;-80
2023/09/17 05:35:02;;;;;;;0.00;0.00;;;;;;;16.68;100.00;96343.13;4990610;28;20771;-79
2023/09/17 05:37:48;;;;;;;0.10;0.10;;;;;;;16.70;100.00;96347.16;4995139;28;20087;-81
2023/09/17 05:40:34;;;;;;;0.00;0.00;;;;;;;16.76;100.00;96336.31;5003690;28;20151;-80
2023/09/17 05:43:20;;;;;;;0.10;0.10;;;;;;;16.80;100.00;96340.81;4990763;28;20412;-81
2023/09/17 05:46:07;;;;;;;0.00;0.00;;;;;;;16.75;100.00;96350.91;4989200;28;20037;-80
2023/09/17 05:49:00;;;;;;;0.10;0.10;;;;;;;16.74;100.00;96357.41;4993633;28;20048;-81
2023/09/17 05:51:46;;;;;;;0.10;0.10;;;;;;;16.67;100.00;96360.44;4994093;28;20045;-80
2023/09/17 05:54:32;;;;;;;0.08;0.08;;;;;;;16.62;100.00;96355.09;4993196;28;20108;-82
2023/09/17 05:57:18;;;;;;;0.00;0.00;;;;;;;16.61;100.00;96353.47;5004843;28;20116;-81
2023/09/17 06:00:07;;;;;;;0.10;0.10;;;;;;;16.66;100.00;96356.94;4993628;28;20037;-80
2023/09/17 06:03:00;;;;;;;0.00;0.00;;;;;;;16.72;100.00;96354.97;5009104;28;20044;-80
2023/09/17 06:05:46;;;;;;;0.10;0.10;;;;;;;16.75;100.00;96353.63;5004241;28;20037;-80
2023/09/17 06:08:32;;;;;;;0.03;0.03;;;;;;;16.73;100.00;96351.22;5002783;28;20037;-81
2023/09/17 06:11:18;;;;;;;0.10;0.10;;;;;;;16.74;100.00;96358.22;4989624;28;20120;-80
2023/09/17 06:14:04;;;;;;;0.00;0.00;;;;;;;16.81;100.00;96361.38;5004310;28;20046;-80
2023/09/17 06:16:51;;;;;;;0.10;0.10;;;;;;;16.83;100.00;96352.97;4987798;28;20052;-80
2023/09/17 06:19:37;;;;;;;0.10;0.10;;;;;;;16.83;100.00;96356.47;4976582;28;20054;-81
2023/09/17 06:22:24;;;;;;;0.10;0.10;;;;;;;16.86;100.00;96355.88;4980812;28;20043;-79
2023/09/17 06:25:09;;;;;;;0.00;0.00;;;;;;;16.94;100.00;96365.22;4989624;28;20052;-79
2023/09/17 06:27:55;;;;;;;0.00;0.00;;;;;;;16.98;100.00;96368.97;4990540;28;20672;-80
2023/09/17 06:30:42;;;;;;;0.10;0.10;;;;;;;17.06;100.00;96371.03;4992715;28;20749;-80
2023/09/17 06:33:29;;;;;;;0.10;0.10;;;;;;;17.16;100.00;96378.19;4991512;28;20061;-81
2023/09/17 06:36:14;;;;;;;0.10;0.10;;;;;;;17.20;100.00;96373.81;4993106;28;20045;-81
2023/09/17 06:39:06;;;;;;;0.10;0.10;;;;;;;17.26;100.00;96369.91;4977701;28;20033;-80
2023/09/17 06:41:52;;;;;;;0.10;0.10;;;;;;;17.31;100.00;96369.06;5005631;28;20034;-80
2023/09/17 06:44:38;;;;;;;0.00;0.00;;;;;;;17.38;100.00;96373.00;5002465;28;20834;-80
2023/09/17 06:47:26;;;;;;;0.10;0.10;;;;;;;17.42;100.00;96363.19;5002140;28;20068;-81
2023/09/17 06:50:13;;;;;;;0.10;0.10;;;;;;;17.46;100.00;96369.63;5002973;28;20550;-79
2023/09/17 06:52:59;;;;;;;0.10;0.10;;;;;;;17.54;100.00;96374.38;5003267;28;20621;-81
2023/09/17 06:55:44;;;;;;;0.10;0.10;;;;;;;17.57;100.00;96374.88;5003753;28;20050;-80
2023/09/17 06:58:30;;;;;;;0.00;0.00;;;;;;;17.60;100.00;96377.00;4999900;28;20666;-79
2023/09/17 07:01:17;;;;;;;0.08;0.05;;;;;;;17.71;100.00;96375.75;5001554;28;20041;-80
2023/09/17 07:04:03;;;;;;;0.10;0.10;;;;;;;17.75;100.00;96383.00;5000666;28;20050;-80
2023/09/17 07:06:49;;;;;;;0.00;0.00;;;;;;;17.81;100.00;96381.00;5002620;28;20550;-80
2023/09/17 07:09:35;;;;;;;0.10;0.10;;;;;;;17.89;100.00;96376.81;5001530;28;20118;-78
2023/09/17 07:12:21;;;;;;;0.10;0.10;;;;;;;17.92;100.00;96382.44;5003153;28;20037;-81
2023/09/17 07:15:10;;;;;;;0.00;0.00;;;;;;;17.99;100.00;96373.94;4999397;28;20064;-81
2023/09/17 07:17:58;;;;;;;0.05;0.05;;;;;;;17.95;100.00;96372.91;5002374;28;20048;-80
2023/09/17 07:20:44;;;;;;;0.10;0.10;;;;;;;18.06;100.00;96371.66;5002692;28;20112;-82
2023/09/17 07:23:30;;;;;;;0.10;0.10;;;;;;;18.11;100.00;96368.84;5002809;28;20034;-81
2023/09/17 07:26:16;;;;;;;0.20;0.20;;;;;;;18.17;100.00;96373.06;5000936;28;20060;-80
2023/09/17 07:29:04;;;;;;;0.10;0.10;;;;;;;18.18;100.00;96368.44;5002780;28;20124;-79
2023/09/17 07:31:50;;;;;;;0.10;0.10;;;;;;;18.32;100.00;96374.69;5000293;28;20042;-81
2023/09/17 07:34:36;;;;;;;0.00;0.00;;;;;;;18.31;100.00;96373.09;5003477;28;20062;-80
2023/09/17 07:37:22;;;;;;;0.10;0.10;;;;;;;18.35;100.00;96372.16;5003128;28;20041;-79
2023/09/17 07:40:08;;;;;;;0.10;0.10;;;;;;;18.37;100.00;96374.59;5007581;28;20539;-79
2023/09/17 07:42:54;;;;;;;0.10;0.10;;;;;;;18.45;100.00;96383.94;4989789;28;20063;-79
2023/09/17 07:45:40;;;;;;;0.10;0.10;;;;;;;18.46;100.00;96382.84;5004880;28;20037;-81
2023/09/17 07:48:29;;;;;;;0.10;0.10;;;;;;;18.53;100.00;96381.31;5004476;28;20043;-79
2023/09/17 07:51:16;;;;;;;0.10;0.10;;;;;;;18.69;100.00;96389.19;5007698;28;20114;-80
2023/09/17 07:54:01;;;;;;;0.05;0.05;;;;;;;18.79;100.00;96383.56;5002979;28;20672;-81
2023/09/17 07:56:47;;;;;;;0.00;0.00;;;;;;;18.93;100.00;96385.16;4994760;28;20045;-81
2023/09/17 07:59:33;;;;;;;0.10;0.10;;;;;;;19.02;100.00;96382.50;5005444;28;20037;-81
2023/09/17 08:02:19;;;;;;;0.08;0.08;;;;;;;19.07;100.00;96385.13;5003559;28;20049;-80
2023/09/17 08:05:07;;;;;;;0.10;0.10;;;;;;;18.98;100.00;96384.22;5003516;28;20124;-80
2023/09/17 08:07:52;;;;;;;0.10;0.10;;;;;;;19.24;100.00;96389.09;4977304;28;20037;-80
2023/09/17 08:10:38;;;;;;;0.10;0.10;;;;;;;19.36;100.00;96386.66;5004087;28;20731;-79
2023/09/17 08:13:24;;;;;;;0.10;0.10;;;;;;;19.42;100.00;96391.66;5004187;28;20080;-79
2023/09/17 08:16:10;;;;;;;0.10;0.10;;;;;;;19.45;100.00;96393.78;5003313;28;20135;-80
2023/09/17 08:18:56;;;;;;;0.10;0.10;;;;;;;19.53;100.00;96397.63;5001639;28;20034;-79
2023/09/17 08:21:42;;;;;;;0.00;0.00;;;;;;;19.67;100.00;96390.28;5002499;28;20037;-78
2023/09/17 08:24:27;;;;;;;0.10;0.10;;;;;;;19.62;100.00;96390.41;5004627;28;20049;-79
2023/09/17 08:27:16;;;;;;;0.00;0.00;;;;;;;19.73;100.00;96391.78;5005053;28;20100;-80
2023/09/17 08:30:11;;;;;;;0.10;0.10;;;;;;;19.91;100.00;96389.16;4989538;28;20548;-81
2023/09/17 08:32:59;;;;;;;0.00;0.00;;;;;;;19.99;100.00;96405.50;5001535;28;20033;-81
2023/09/17 08:35:45;;;;;;;0.10;0.10;;;;;;;20.03;100.00;96389.41;5003662;28;20070;-80
2023/09/17 08:38:31;;;;;;;0.10;0.10;;;;;;;20.27;100.00;96400.72;5004839;28;20033;-80
2023/09/17 08:41:22;;;;;;;0.10;0.10;;;;;;;20.52;100.00;96396.56;5005099;28;20082;-80
2023/09/17 08:44:09;;;;;;;0.00;0.00;;;;;;;20.48;100.00;96392.88;5002422;28;20049;-80
2023/09/17 08:46:57;;;;;;;0.00;0.00;;;;;;;20.44;100.00;96393.81;5002253;28;20038;-80
2023/09/17 08:49:43;;;;;;;0.10;0.10;;;;;;;20.49;100.00;96390.97;4979462;28;20591;-81
2023/09/17 08:52:32;;;;;;;0.10;0.10;;;;;;;20.63;100.00;96388.94;5001441;28;20042;-80
2023/09/17 08:55:19;;;;;;;0.00;0.00;;;;;;;20.64;100.00;96395.19;5002051;28;20069;-80
2023/09/17 08:58:15;;;;;;;0.10;0.10;;;;;;;20.76;100.00;96390.72;5005321;28;20076;-80
2023/09/17 09:01:03;;;;;;;0.10;0.10;;;;;;;21.01;100.00;96394.66;5003612;28;20030;-81
2023/09/17 09:03:52;;;;;;;0.10;0.10;;;;;;;20.88;100.00;96392.06;4964085;28;20054;-80
2023/09/17 09:06:39;;;;;;;0.00;0.00;;;;;;;20.96;100.00;96392.06;4989391;28;20618;-80
2023/09/17 09:09:25;;;;;;;0.10;0.10;;;;;;;21.01;100.00;96393.84;4988175;28;20816;-80
2023/09/17 09:12:13;;;;;;;0.00;0.00;;;;;;;21.04;100.00;96390.50;4988645;28;20042;-80
2023/09/17 09:15:00;;;;;;;0.10;0.10;;;;;;;21.09;100.00;96380.28;4987343;28;20077;-80
2023/09/17 09:17:46;;;;;;;0.10;0.10;;;;;;;21.29;100.00;96388.97;4989307;28;20042;-80
2023/09/17 09:20:32;;;;;;;0.00;0.00;;;;;;;21.71;100.00;96390.06;4990564;28;20037;-81
2023/09/17 09:23:18;;;;;;;0.00;0.00;;;;;;;21.87;100.00;96398.59;4988482;28;20041;-80
2023/09/17 09:26:06;;;;;;;0.10;0.10;;;;;;;21.80;100.00;96396.34;4976558;28;20049;-81
2023/09/17 09:28:51;;;;;;;0.10;0.10;;;;;;;21.85;100.00;96404.34;4989443;28;20038;-80
2023/09/17 09:31:39;;;;;;;0.10;0.10;;;;;;;21.76;100.00;96410.91;4989651;28;20129;-80
2023/09/17 09:34:27;;;;;;;0.10;0.10;;;;;;;21.66;100.00;96407.41;4988155;28;20037;-81
2023/09/17 09:37:12;;;;;;;0.08;0.08;;;;;;;21.87;100.00;96410.28;4990489;28;20096;-80
2023/09/17 09:39:58;;;;;;;0.10;0.10;;;;;;;21.98;100.00;96397.13;4990815;28;20975;-79
2023/09/17 09:42:46;;;;;;;0.03;0.03;;;;;;;22.24;100.00;96402.53;4987895;28;20033;-81
2023/09/17 09:45:32;;;;;;;0.10;0.10;;;;;;;22.06;100.00;96399.03;4974788;28;20072;-81
2023/09/17 09:48:18;;;;;;;0.00;0.00;;;;;;;22.40;100.00;96400.88;4988545;28;20099;-80
2023/09/17 09:51:06;;;;;;;0.00;0.00;;;;;;;22.58;100.00;96398.13;4989241;28;20081;-80
2023/09/17 09:53:55;;;;;;;0.00;0.00;;;;;;;22.71;100.00;96392.41;4989906;28;20591;-81
2023/09/17 09:56:41;;;;;;;0.10;0.10;;;;;;;23.03;100.00;96392.94;4992086;28;20645;-81
2023/09/17 09:59:27;;;;;;;0.00;0.00;;;;;;;22.94;100.00;96411.28;4988816;28;20068;-80
2023/09/17 10:02:15;;;;;;;0.20;0.20;;;;;;;23.50;100.00;96401.78;4974883;28;20825;-79
2023/09/17 10:05:04;;;;;;;0.10;0.10;;;;;;;23.73;100.00;96399.53;4990635;28;20160;-80
2023/09/17 10:07:50;;;;;;;0.10;0.10;;;;;;;23.71;100.00;96401.81;4989119;28;20065;-79
2023/09/17 10:10:37;;;;;;;0.10;0.10;;;;;;;23.74;100.00;96394.91;4990827;28;20041;-81
2023/09/17 10:13:23;;;;;;;0.10;0.10;;;;;;;23.59;100.00;96390.81;4989167;28;20050;-80
2023/09/17 10:16:09;;;;;;;0.10;0.10;;;;;;;23.59;100.00;96391.59;4988670;28;20054;-81
2023/09/17 10:18:56;;;;;;;0.13;0.13;;;;;;;24.08;100.00;96400.03;4990227;28;20981;-81
2023/09/17 10:21:43;;;;;;;0.03;0.03;;;;;;;24.94;100.00;96384.56;4987711;28;20045;-81
2023/09/17 10:24:30;;;;;;;0.13;0.13;;;;;;;25.26;100.00;96391.06;4986912;28;20053;-81
2023/09/17 10:27:18;;;;;;;0.20;0.20;;;;;;;27.03;100.00;96387.28;4990563;28;20729;-82
2023/09/17 10:30:06;;;;;;;0.10;0.10;;;;;;;28.59;97.42;96370.50;4991000;28;20048;-79
2023/09/17 10:32:53;;;;;;;0.10;0.10;;;;;;;29.05;94.23;96371.28;4988910;28;20092;-80
2023/09/17 10:35:40;;;;;;;0.10;0.10;;;;;;;29.65;89.48;96368.63;4991722;28;20185;-80
2023/09/17 10:38:27;;;;;;;0.10;0.10;;;;;;;30.95;84.74;96361.31;4987473;28;20516;-82
2023/09/17 10:41:14;;;;;;;0.10;0.10;;;;;;;30.37;85.48;96377.75;4988254;28;20042;-81
2023/09/17 10:44:01;;;;;;;0.00;0.00;;;;;;;28.26;97.10;96374.63;4986305;28;20120;-81
2023/09/17 10:46:49;;;;;;;0.10;0.10;;;;;;;26.23;100.00;96380.97;4988389;28;20049;-80
2023/09/17 10:49:38;;;;;;;0.20;0.20;;;;;;;27.73;100.00;96387.31;4987660;28;20042;-81
2023/09/17 10:52:25;;;;;;;0.10;0.10;;;;;;;32.07;82.80;96372.66;4987064;28;20268;-81
2023/09/17 10:55:11;;;;;;;0.10;0.10;;;;;;;33.85;71.31;96360.75;4983880;28;20042;-80
2023/09/17 10:58:19;;;;;;;0.10;0.10;;;;;;;34.38;61.10;96358.94;4988583;28;20037;-78
2023/09/17 11:01:07;;;;;;;0.10;0.10;;;;;;;33.66;69.83;96352.91;4986301;28;20578;-80
2023/09/17 11:04:00;;;;;;;0.10;0.10;;;;;;;34.22;63.57;96351.09;4989924;28;20042;-80
2023/09/17 11:06:50;;;;;;;0.15;0.15;;;;;;;35.26;54.83;96349.16;4986907;28;20046;-80
2023/09/17 11:09:36;;;;;;;0.10;0.10;;;;;;;34.59;56.34;96354.06;4992083;28;20140;-80
2023/09/17 11:12:23;;;;;;;0.10;0.10;;;;;;;36.11;47.29;96366.09;4992080;28;20042;-81
2023/09/17 11:15:10;;;;;;;0.10;0.10;;;;;;;37.18;43.71;96345.78;4992015;28;20034;-78
2023/09/17 11:17:59;;;;;;;0.10;0.10;;;;;;;36.63;45.21;96358.22;4992293;28;20535;-78
2023/09/17 11:21:00;;;;;;;0.00;0.00;;;;;;;31.11;77.72;96372.09;4992345;28;20041;-78
2023/09/17 11:23:46;;;;;;;0.10;0.10;;;;;;;28.59;94.19;96374.06;4990860;28;20113;-78
2023/09/17 11:26:37;;;;;;;0.10;0.10;;;;;;;30.70;88.10;96371.38;4991417;28;20077;-78
2023/09/17 11:29:42;;;;;;;0.00;0.00;;;;;;;28.98;90.81;96367.63;4991517;28;20046;-78
2023/09/17 11:32:28;;;;;;;0.10;0.10;;;;;;;28.56;96.58;96354.72;4990366;28;20145;-78
2023/09/17 11:35:15;;;;;;;0.20;0.20;;;;;;;32.96;74.58;96356.19;4992475;28;20137;-78
2023/09/17 11:38:01;;;;;;;0.10;0.10;;;;;;;35.84;57.82;96352.91;4991142;28;20041;-80
2023/09/17 11:41:00;;;;;;;0.10;0.10;;;;;;;33.19;70.17;96355.00;4991949;28;20103;-80
2023/09/17 11:43:50;;;;;;;0.00;0.00;;;;;;;32.08;72.71;96357.63;4991404;28;20970;-80
2023/09/17 11:46:37;;;;;;;;;;;;;;;31.58;76.57;96362.13;4989848;28;20038;-80
2023/09/17 11:49:23;;;;;;;0.10;0.10;;;;;;;31.98;79.94;96363.13;4975912;28;20479;-80
2023/09/17 11:52:10;;;;;;;0.15;0.15;;;;;;;35.09;57.24;96348.09;4990228;28;20037;-80
2023/09/17 11:55:03;;;;;;;0.00;0.00;;;;;;;30.66;80.80;96357.56;4992089;28;20076;-80
2023/09/17 11:57:49;;;;;;;0.00;0.00;;;;;;;28.98;92.33;96367.63;4990004;28;20111;-79
2023/09/17 12:00:35;;;;;;;0.00;0.00;;;;;;;27.31;96.72;96363.22;4992405;28;20046;-80
2023/09/17 12:03:22;;;;;;;0.10;0.10;;;;;;;29.23;91.26;96359.72;4992945;28;20108;-80
2023/09/17 12:06:08;;;;;;;0.00;0.00;;;;;;;28.66;92.25;96350.56;4978029;28;20046;-80
2023/09/17 12:09:07;;;;;;;0.00;0.00;;;;;;;29.77;88.85;96353.78;4990337;28;20143;-78
2023/09/17 12:11:59;;;;;;;0.00;0.00;;;;;;;30.60;84.37;96348.00;4990520;28;20040;-78
2023/09/17 12:14:47;;;;;;;0.10;0.10;;;;;;;31.19;86.10;96350.81;4991678;28;20049;-79
2023/09/17 12:17:41;;;;;;;0.10;0.10;;;;;;;34.23;65.71;96347.13;4990316;28;20041;-79
2023/09/17 12:21:09;;;;;;;0.20;0.20;;;;;;;33.62;65.72;96352.94;4991940;28;20041;-79
2023/09/17 12:23:57;;;;;;;0.10;0.10;;;;;;;33.61;65.58;96356.09;4900213;29;20057;-79
2023/09/17 12:30:18;;;;;;;0.00;0.00;;;;;;;34.53;61.16;96349.34;4992424;28;20116;-79
2023/09/17 12:33:04;;;;;;;0.00;0.00;;;;;;;29.94;85.50;96352.41;4990419;28;20109;-79
2023/09/17 12:35:51;;;;;;;0.00;0.00;;;;;;;30.45;85.43;96358.09;4989443;28;20921;-80
2023/09/17 12:38:37;;;;;;;0.10;0.10;;;;;;;32.75;73.81;96345.09;4990496;28;20050;-80
2023/09/17 12:41:23;;;;;;;0.10;0.10;;;;;;;33.67;63.50;96351.72;4991847;28;20037;-79
2023/09/17 12:44:10;;;;;;;0.00;0.00;;;;;;;33.61;62.97;96351.34;4990031;28;20042;-78
2023/09/17 12:46:55;;;;;;;0.10;0.10;;;;;;;33.36;62.98;96356.94;4991085;28;20049;-79
2023/09/17 12:49:43;;;;;;;0.00;0.00;;;;;;;33.80;66.64;96347.31;4989145;28;20760;-79
2023/09/17 12:52:28;;;;;;;0.10;0.10;;;;;;;33.17;66.55;96347.09;4989595;28;20973;-80
2023/09/17 12:55:14;;;;;;;0.10;0.10;;;;;;;33.41;63.24;96351.03;4989050;28;20045;-80
2023/09/17 12:58:07;;;;;;;0.05;0.05;;;;;;;33.31;65.82;96340.72;4990242;28;20049;-79
2023/09/17 13:00:53;;;;;;;0.10;0.10;;;;;;;34.53;58.15;96349.34;4991919;28;20515;-80
2023/09/17 13:03:55;;;;;;;0.00;0.00;;;;;;;34.92;48.35;96343.50;4990249;28;20912;-80